createdAt,value
2018-08-04T00:00:54.836Z,1016.99
2018-08-04T00:01:54.839Z,1017
2018-08-04T00:02:54.819Z,1017.01
2018-08-04T00:03:54.743Z,1017.01
2018-08-04T00:04:54.814Z,1016.98
2018-08-04T00:05:54.935Z,1016.99
2018-08-04T00:06:54.878Z,1016.96
2018-08-04T00:07:54.959Z,1016.93
2018-08-04T00:08:54.862Z,1016.95
2018-08-04T00:09:54.970Z,1017
2018-08-04T00:10:54.855Z,1016.95
2018-08-04T00:11:55.018Z,1016.96
2018-08-04T00:12:55.173Z,1016.97
2018-08-04T00:13:54.769Z,1016.9
2018-08-04T00:14:54.999Z,1016.92
2018-08-04T00:15:54.908Z,1016.91
2018-08-04T00:16:54.826Z,1016.9
2018-08-04T00:17:55.027Z,1016.86
2018-08-04T00:18:54.860Z,1016.89
2018-08-04T00:19:54.868Z,1016.87
2018-08-04T00:20:54.815Z,1016.88
2018-08-04T00:21:54.695Z,1016.89
2018-08-04T00:22:55.271Z,1016.86
2018-08-04T00:23:54.722Z,1016.89
2018-08-04T00:24:54.906Z,1016.91
2018-08-04T00:25:55.087Z,1016.9
2018-08-04T00:26:54.824Z,1016.85
2018-08-04T00:27:54.934Z,1016.84
2018-08-04T00:28:54.853Z,1016.87
2018-08-04T00:29:55.342Z,1016.92
2018-08-04T00:30:54.639Z,1016.85
2018-08-04T00:31:55.173Z,1016.87
2018-08-04T00:32:54.785Z,1016.84
2018-08-04T00:33:54.931Z,1016.82
2018-08-04T00:34:54.865Z,1016.84
2018-08-04T00:35:54.856Z,1016.81
2018-08-04T00:36:54.832Z,1016.83
2018-08-04T00:37:54.833Z,1016.79
2018-08-04T00:38:54.888Z,1016.83
2018-08-04T00:39:54.729Z,1016.81
2018-08-04T00:40:54.866Z,1016.83
2018-08-04T00:41:54.950Z,1016.83
2018-08-04T00:42:54.946Z,1016.86
2018-08-04T00:43:54.688Z,1016.86
2018-08-04T00:44:54.765Z,1016.88
2018-08-04T00:45:54.768Z,1016.86
2018-08-04T00:46:54.852Z,1016.85
2018-08-04T00:47:54.819Z,1016.86
2018-08-04T00:48:54.781Z,1016.82
2018-08-04T00:49:55.057Z,1016.86
2018-08-04T00:50:54.876Z,1016.84
2018-08-04T00:51:54.774Z,1016.86
2018-08-04T00:52:54.958Z,1016.82
2018-08-04T00:53:54.831Z,1016.85
2018-08-04T00:54:54.943Z,1016.81
2018-08-04T00:55:54.801Z,1016.78
2018-08-04T00:56:55.000Z,1016.85
2018-08-04T00:57:54.760Z,1016.81
2018-08-04T00:58:54.997Z,1016.83
2018-08-04T00:59:54.726Z,1016.78
2018-08-04T01:00:55.025Z,1016.79
2018-08-04T01:01:54.893Z,1016.8
2018-08-04T01:02:54.804Z,1016.76
2018-08-04T01:03:55.143Z,1016.73
2018-08-04T01:04:54.793Z,1016.78
2018-08-04T01:05:54.948Z,1016.77
2018-08-04T01:06:54.689Z,1016.8
2018-08-04T01:07:54.908Z,1016.84
2018-08-04T01:08:54.739Z,1016.84
2018-08-04T01:09:54.857Z,1016.8
2018-08-04T01:10:54.772Z,1016.78
2018-08-04T01:11:54.838Z,1016.8
2018-08-04T01:12:54.799Z,1016.8
2018-08-04T01:13:54.936Z,1016.77
2018-08-04T01:14:54.836Z,1016.78
2018-08-04T01:15:54.683Z,1016.74
2018-08-04T01:16:54.913Z,1016.75
2018-08-04T01:17:54.849Z,1016.77
2018-08-04T01:18:54.727Z,1016.74
2018-08-04T01:19:54.835Z,1016.76
2018-08-04T01:20:54.840Z,1016.69
2018-08-04T01:21:55.007Z,1016.7
2018-08-04T01:22:54.763Z,1016.77
2018-08-04T01:23:54.938Z,1016.75
2018-08-04T01:24:54.805Z,1016.75
2018-08-04T01:25:54.994Z,1016.77
2018-08-04T01:26:55.060Z,1016.72
2018-08-04T01:27:54.944Z,1016.75
2018-08-04T01:28:54.902Z,1016.74
2018-08-04T01:29:54.861Z,1016.79
2018-08-04T01:30:54.718Z,1016.76
2018-08-04T01:31:54.837Z,1016.78
2018-08-04T01:32:54.930Z,1016.79
2018-08-04T01:33:54.907Z,1016.78
2018-08-04T01:34:54.843Z,1016.79
2018-08-04T01:35:54.824Z,1016.83
2018-08-04T01:36:54.878Z,1016.78
2018-08-04T01:37:54.812Z,1016.79
2018-08-04T01:38:54.937Z,1016.76
2018-08-04T01:39:54.965Z,1016.77
2018-08-04T01:40:54.694Z,1016.77
2018-08-04T01:41:54.776Z,1016.74
2018-08-04T01:42:55.423Z,1016.73
2018-08-04T01:43:54.934Z,1016.74
2018-08-04T01:44:54.970Z,1016.75
2018-08-04T01:45:54.816Z,1016.74
2018-08-04T01:46:54.913Z,1016.8
2018-08-04T01:47:54.923Z,1016.78
2018-08-04T01:48:54.793Z,1016.77
2018-08-04T01:49:54.675Z,1016.76
2018-08-04T01:50:54.761Z,1016.77
2018-08-04T01:51:54.726Z,1016.72
2018-08-04T01:52:54.866Z,1016.75
2018-08-04T01:53:54.976Z,1016.75
2018-08-04T01:54:54.720Z,1016.76
2018-08-04T01:55:55.096Z,1016.8
2018-08-04T01:56:54.884Z,1016.8
2018-08-04T01:57:54.867Z,1016.79
2018-08-04T01:58:54.807Z,1016.79
2018-08-04T01:59:54.823Z,1016.8
2018-08-04T02:00:54.694Z,1016.8
2018-08-04T02:01:54.939Z,1016.74
2018-08-04T02:02:54.775Z,1016.76
2018-08-04T02:03:54.664Z,1016.75
2018-08-04T02:04:54.685Z,1016.74
2018-08-04T02:05:54.946Z,1016.75
2018-08-04T02:06:55.243Z,1016.73
2018-08-04T02:07:54.792Z,1016.7
2018-08-04T02:08:54.827Z,1016.73
2018-08-04T02:09:54.767Z,1016.73
2018-08-04T02:10:54.936Z,1016.73
2018-08-04T02:11:54.812Z,1016.71
2018-08-04T02:12:54.747Z,1016.71
2018-08-04T02:13:54.744Z,1016.73
2018-08-04T02:14:54.913Z,1016.73
2018-08-04T02:15:55.361Z,1016.71
2018-08-04T02:16:55.069Z,1016.75
2018-08-04T02:17:54.931Z,1016.74
2018-08-04T02:18:54.811Z,1016.72
2018-08-04T02:19:54.764Z,1016.72
2018-08-04T02:20:54.794Z,1016.69
2018-08-04T02:21:54.797Z,1016.74
2018-08-04T02:22:54.817Z,1016.7
2018-08-04T02:23:54.894Z,1016.7
2018-08-04T02:24:54.734Z,1016.67
2018-08-04T02:25:54.768Z,1016.65
2018-08-04T02:26:54.741Z,1016.63
2018-08-04T02:27:54.701Z,1016.68
2018-08-04T02:28:54.753Z,1016.62
2018-08-04T02:29:54.806Z,1016.67
2018-08-04T02:30:54.830Z,1016.67
2018-08-04T02:31:54.840Z,1016.7
2018-08-04T02:32:54.862Z,1016.73
2018-08-04T02:33:54.855Z,1016.67
2018-08-04T02:34:54.882Z,1016.69
2018-08-04T02:35:54.727Z,1016.74
2018-08-04T02:36:54.711Z,1016.7
2018-08-04T02:37:54.707Z,1016.72
2018-08-04T02:38:54.899Z,1016.69
2018-08-04T02:39:54.698Z,1016.7
2018-08-04T02:40:54.981Z,1016.72
2018-08-04T02:41:54.733Z,1016.69
2018-08-04T02:42:54.915Z,1016.67
2018-08-04T02:43:54.755Z,1016.63
2018-08-04T02:44:54.845Z,1016.63
2018-08-04T02:45:54.626Z,1016.69
2018-08-04T02:46:54.853Z,1016.68
2018-08-04T02:47:54.850Z,1016.7
2018-08-04T02:48:54.927Z,1016.69
2018-08-04T02:49:54.820Z,1016.7
2018-08-04T02:50:54.882Z,1016.69
2018-08-04T02:51:54.816Z,1016.69
2018-08-04T02:52:54.936Z,1016.68
2018-08-04T02:53:54.854Z,1016.64
2018-08-04T02:54:54.667Z,1016.72
2018-08-04T02:55:55.038Z,1016.75
2018-08-04T02:56:54.896Z,1016.68
2018-08-04T02:57:55.071Z,1016.71
2018-08-04T02:58:54.719Z,1016.63
2018-08-04T02:59:54.806Z,1016.67
2018-08-04T03:00:54.750Z,1016.64
2018-08-04T03:01:54.923Z,1016.65
2018-08-04T03:02:55.038Z,1016.64
2018-08-04T03:03:54.671Z,1016.64
2018-08-04T03:04:54.987Z,1016.62
2018-08-04T03:05:54.690Z,1016.66
2018-08-04T03:06:54.878Z,1016.7
2018-08-04T03:07:54.861Z,1016.68
2018-08-04T03:08:54.715Z,1016.69
2018-08-04T03:09:54.738Z,1016.65
2018-08-04T03:10:54.924Z,1016.69
2018-08-04T03:11:55.026Z,1016.68
2018-08-04T03:12:54.787Z,1016.69
2018-08-04T03:13:54.946Z,1016.67
2018-08-04T03:14:54.849Z,1016.66
2018-08-04T03:15:54.998Z,1016.65
2018-08-04T03:16:54.887Z,1016.67
2018-08-04T03:17:54.859Z,1016.66
2018-08-04T03:18:54.792Z,1016.66
2018-08-04T03:19:54.749Z,1016.69
2018-08-04T03:20:54.892Z,1016.67
2018-08-04T03:21:54.731Z,1016.67
2018-08-04T03:22:54.734Z,1016.66
2018-08-04T03:23:54.897Z,1016.68
2018-08-04T03:24:54.943Z,1016.62
2018-08-04T03:25:54.750Z,1016.63
2018-08-04T03:26:54.855Z,1016.66
2018-08-04T03:27:55.086Z,1016.65
2018-08-04T03:28:54.770Z,1016.66
2018-08-04T03:29:54.899Z,1016.61
2018-08-04T03:30:55.002Z,1016.66
2018-08-04T03:31:54.853Z,1016.66
2018-08-04T03:32:54.952Z,1016.69
2018-08-04T03:33:54.821Z,1016.68
2018-08-04T03:34:54.788Z,1016.7
2018-08-04T03:35:54.926Z,1016.72
2018-08-04T03:36:54.956Z,1016.69
2018-08-04T03:37:54.788Z,1016.69
2018-08-04T03:38:54.847Z,1016.71
2018-08-04T03:39:54.818Z,1016.71
2018-08-04T03:40:54.905Z,1016.7
2018-08-04T03:41:54.676Z,1016.73
2018-08-04T03:42:54.826Z,1016.72
2018-08-04T03:43:54.805Z,1016.71
2018-08-04T03:44:54.915Z,1016.73
2018-08-04T03:45:54.699Z,1016.72
2018-08-04T03:46:54.827Z,1016.75
2018-08-04T03:47:54.811Z,1016.73
2018-08-04T03:48:54.905Z,1016.75
2018-08-04T03:49:55.003Z,1016.79
2018-08-04T03:50:54.662Z,1016.76
2018-08-04T03:51:54.938Z,1016.75
2018-08-04T03:52:54.771Z,1016.78
2018-08-04T03:53:54.946Z,1016.85
2018-08-04T03:54:54.827Z,1016.81
2018-08-04T03:55:54.918Z,1016.85
2018-08-04T03:56:54.786Z,1016.9
2018-08-04T03:57:54.885Z,1016.88
2018-08-04T03:58:54.903Z,1016.87
2018-08-04T03:59:54.640Z,1016.9
2018-08-04T04:00:54.885Z,1016.92
2018-08-04T04:01:54.882Z,1016.92
2018-08-04T04:02:54.728Z,1016.88
2018-08-04T04:03:54.733Z,1016.91
2018-08-04T04:04:54.793Z,1016.89
2018-08-04T04:05:54.762Z,1016.9
2018-08-04T04:06:54.782Z,1016.89
2018-08-04T04:07:54.763Z,1016.85
2018-08-04T04:08:54.633Z,1016.9
2018-08-04T04:09:54.877Z,1016.89
2018-08-04T04:10:54.679Z,1016.88
2018-08-04T04:11:54.969Z,1016.88
2018-08-04T04:12:55.116Z,1016.89
2018-08-04T04:13:54.744Z,1016.93
2018-08-04T04:14:54.793Z,1016.91
2018-08-04T04:15:54.844Z,1016.95
2018-08-04T04:16:54.987Z,1016.98
2018-08-04T04:17:54.722Z,1016.97
2018-08-04T04:18:54.870Z,1016.98
2018-08-04T04:19:54.948Z,1016.97
2018-08-04T04:20:54.787Z,1016.97
2018-08-04T04:21:54.964Z,1017.01
2018-08-04T04:22:54.824Z,1017
2018-08-04T04:23:54.864Z,1016.99
2018-08-04T04:24:55.051Z,1017.01
2018-08-04T04:25:54.736Z,1017.01
2018-08-04T04:26:54.708Z,1017.03
2018-08-04T04:27:54.706Z,1016.98
2018-08-04T04:28:55.049Z,1016.98
2018-08-04T04:29:54.924Z,1016.99
2018-08-04T04:30:55.063Z,1017.02
2018-08-04T04:31:54.793Z,1016.99
2018-08-04T04:32:54.796Z,1017.02
2018-08-04T04:33:54.933Z,1017
2018-08-04T04:34:54.803Z,1017.06
2018-08-04T04:35:54.861Z,1017.05
2018-08-04T04:36:54.981Z,1017.04
2018-08-04T04:37:54.867Z,1017.05
2018-08-04T04:38:54.740Z,1017.06
2018-08-04T04:39:54.851Z,1017.06
2018-08-04T04:40:55.054Z,1017.07
2018-08-04T04:41:54.878Z,1017.08
2018-08-04T04:42:54.750Z,1017.12
2018-08-04T04:43:54.825Z,1017.11
2018-08-04T04:44:54.815Z,1017.11
2018-08-04T04:45:54.974Z,1017.12
2018-08-04T04:46:54.617Z,1017.14
2018-08-04T04:47:54.742Z,1017.13
2018-08-04T04:48:54.740Z,1017.14
2018-08-04T04:49:54.754Z,1017.15
2018-08-04T04:50:54.726Z,1017.17
2018-08-04T04:51:54.900Z,1017.22
2018-08-04T04:52:54.802Z,1017.19
2018-08-04T04:53:54.618Z,1017.18
2018-08-04T04:54:54.776Z,1017.2
2018-08-04T04:55:54.923Z,1017.2
2018-08-04T04:56:54.767Z,1017.2
2018-08-04T04:57:54.783Z,1017.18
2018-08-04T04:58:54.740Z,1017.21
2018-08-04T04:59:54.775Z,1017.2
2018-08-04T05:00:54.736Z,1017.2
2018-08-04T05:01:55.026Z,1017.19
2018-08-04T05:02:54.771Z,1017.24
2018-08-04T05:03:54.699Z,1017.22
2018-08-04T05:04:54.877Z,1017.22
2018-08-04T05:05:54.867Z,1017.23
2018-08-04T05:06:54.719Z,1017.25
2018-08-04T05:07:54.872Z,1017.23
2018-08-04T05:08:54.677Z,1017.23
2018-08-04T05:09:54.998Z,1017.18
2018-08-04T05:10:54.699Z,1017.23
2018-08-04T05:11:54.840Z,1017.2
2018-08-04T05:12:55.071Z,1017.17
2018-08-04T05:13:54.791Z,1017.18
2018-08-04T05:14:54.875Z,1017.21
2018-08-04T05:15:54.828Z,1017.22
2018-08-04T05:16:54.992Z,1017.19
2018-08-04T05:17:54.784Z,1017.2
2018-08-04T05:18:54.672Z,1017.21
2018-08-04T05:19:54.899Z,1017.21
2018-08-04T05:20:54.891Z,1017.19
2018-08-04T05:21:54.904Z,1017.23
2018-08-04T05:22:54.769Z,1017.22
2018-08-04T05:23:54.805Z,1017.27
2018-08-04T05:24:55.168Z,1017.27
2018-08-04T05:25:54.674Z,1017.26
2018-08-04T05:26:54.797Z,1017.26
2018-08-04T05:27:54.897Z,1017.25
2018-08-04T05:28:54.736Z,1017.27
2018-08-04T05:29:54.750Z,1017.24
2018-08-04T05:30:54.791Z,1017.31
2018-08-04T05:31:54.858Z,1017.27
2018-08-04T05:32:54.731Z,1017.29
2018-08-04T05:33:54.802Z,1017.31
2018-08-04T05:34:54.769Z,1017.31
2018-08-04T05:35:54.897Z,1017.32
2018-08-04T05:36:54.790Z,1017.35
2018-08-04T05:37:54.931Z,1017.32
2018-08-04T05:38:54.599Z,1017.31
2018-08-04T05:39:54.835Z,1017.31
2018-08-04T05:40:54.681Z,1017.27
2018-08-04T05:41:54.832Z,1017.29
2018-08-04T05:42:54.765Z,1017.26
2018-08-04T05:43:54.850Z,1017.27
2018-08-04T05:44:54.991Z,1017.27
2018-08-04T05:45:54.865Z,1017.29
2018-08-04T05:46:54.749Z,1017.28
2018-08-04T05:47:54.677Z,1017.29
2018-08-04T05:48:54.694Z,1017.29
2018-08-04T05:49:54.890Z,1017.28
2018-08-04T05:50:54.795Z,1017.3
2018-08-04T05:51:54.664Z,1017.28
2018-08-04T05:52:54.681Z,1017.32
2018-08-04T05:53:54.767Z,1017.3
2018-08-04T05:54:54.887Z,1017.33
2018-08-04T05:55:54.771Z,1017.35
2018-08-04T05:56:54.761Z,1017.33
2018-08-04T05:57:54.925Z,1017.31
2018-08-04T05:58:54.552Z,1017.34
2018-08-04T05:59:54.713Z,1017.36
2018-08-04T06:00:54.768Z,1017.37
2018-08-04T06:01:54.782Z,1017.38
2018-08-04T06:02:54.712Z,1017.39
2018-08-04T06:03:54.675Z,1017.36
2018-08-04T06:04:54.889Z,1017.34
2018-08-04T06:05:54.872Z,1017.36
2018-08-04T06:06:54.810Z,1017.35
2018-08-04T06:07:54.654Z,1017.31
2018-08-04T06:08:54.773Z,1017.31
2018-08-04T06:09:54.817Z,1017.34
2018-08-04T06:10:54.752Z,1017.35
2018-08-04T06:11:54.742Z,1017.34
2018-08-04T06:12:54.710Z,1017.39
2018-08-04T06:13:54.777Z,1017.35
2018-08-04T06:14:54.818Z,1017.37
2018-08-04T06:15:54.624Z,1017.39
2018-08-04T06:16:54.815Z,1017.39
2018-08-04T06:17:54.805Z,1017.41
2018-08-04T06:18:54.877Z,1017.4
2018-08-04T06:19:54.850Z,1017.42
2018-08-04T06:20:54.820Z,1017.42
2018-08-04T06:21:55.009Z,1017.41
2018-08-04T06:22:54.830Z,1017.39
2018-08-04T06:23:54.870Z,1017.4
2018-08-04T06:24:54.984Z,1017.39
2018-08-04T06:25:54.601Z,1017.36
2018-08-04T06:26:54.754Z,1017.42
2018-08-04T06:27:54.802Z,1017.43
2018-08-04T06:28:54.773Z,1017.45
2018-08-04T06:29:54.800Z,1017.42
2018-08-04T06:30:54.830Z,1017.42
2018-08-04T06:31:54.689Z,1017.42
2018-08-04T06:32:54.859Z,1017.41
2018-08-04T06:33:54.716Z,1017.42
2018-08-04T06:34:54.798Z,1017.41
2018-08-04T06:35:54.841Z,1017.42
2018-08-04T06:36:54.767Z,1017.43
2018-08-04T06:37:54.830Z,1017.42
2018-08-04T06:38:54.880Z,1017.41
2018-08-04T06:39:54.880Z,1017.41
2018-08-04T06:40:54.895Z,1017.42
2018-08-04T06:41:54.650Z,1017.44
2018-08-04T06:42:55.034Z,1017.43
2018-08-04T06:43:54.860Z,1017.43
2018-08-04T06:44:54.822Z,1017.45
2018-08-04T06:45:54.905Z,1017.46
2018-08-04T06:46:54.884Z,1017.46
2018-08-04T06:47:54.794Z,1017.47
2018-08-04T06:48:55.054Z,1017.44
2018-08-04T06:49:54.700Z,1017.47
2018-08-04T06:50:54.732Z,1017.43
2018-08-04T06:51:54.771Z,1017.47
2018-08-04T06:52:54.973Z,1017.46
2018-08-04T06:53:54.857Z,1017.46
2018-08-04T06:54:54.757Z,1017.44
2018-08-04T06:55:54.806Z,1017.48
2018-08-04T06:56:54.896Z,1017.47
2018-08-04T06:57:54.794Z,1017.47
2018-08-04T06:58:54.687Z,1017.44
2018-08-04T06:59:54.861Z,1017.44
2018-08-04T07:00:55.106Z,1017.48
2018-08-04T07:01:54.753Z,1017.44
2018-08-04T07:02:54.795Z,1017.46
2018-08-04T07:03:54.860Z,1017.41
2018-08-04T07:04:54.895Z,1017.44
2018-08-04T07:05:54.864Z,1017.43
2018-08-04T07:06:54.790Z,1017.39
2018-08-04T07:07:54.868Z,1017.41
2018-08-04T07:08:54.811Z,1017.4
2018-08-04T07:09:55.024Z,1017.41
2018-08-04T07:10:54.801Z,1017.37
2018-08-04T07:11:54.913Z,1017.38
2018-08-04T07:12:54.663Z,1017.36
2018-08-04T07:13:54.802Z,1017.37
2018-08-04T07:14:54.677Z,1017.34
2018-08-04T07:15:54.853Z,1017.37
2018-08-04T07:16:54.889Z,1017.33
2018-08-04T07:17:54.867Z,1017.33
2018-08-04T07:18:54.806Z,1017.36
2018-08-04T07:19:54.881Z,1017.34
2018-08-04T07:20:54.740Z,1017.32
2018-08-04T07:21:54.650Z,1017.34
2018-08-04T07:22:55.213Z,1017.36
2018-08-04T07:23:54.757Z,1017.31
2018-08-04T07:24:54.735Z,1017.35
2018-08-04T07:25:54.627Z,1017.32
2018-08-04T07:26:54.666Z,1017.38
2018-08-04T07:27:54.744Z,1017.4
2018-08-04T07:28:55.172Z,1017.38
2018-08-04T07:29:54.723Z,1017.38
2018-08-04T07:30:54.686Z,1017.35
2018-08-04T07:31:54.668Z,1017.38
2018-08-04T07:32:54.675Z,1017.39
2018-08-04T07:33:54.724Z,1017.43
2018-08-04T07:34:54.687Z,1017.41
2018-08-04T07:35:54.795Z,1017.43
2018-08-04T07:36:54.710Z,1017.45
2018-08-04T07:37:54.632Z,1017.4
2018-08-04T07:38:54.698Z,1017.43
2018-08-04T07:39:54.728Z,1017.45
2018-08-04T07:40:54.997Z,1017.44
2018-08-04T07:41:54.826Z,1017.4
2018-08-04T07:42:54.669Z,1017.43
2018-08-04T07:43:54.788Z,1017.41
2018-08-04T07:44:54.708Z,1017.41
2018-08-04T07:45:54.900Z,1017.38
2018-08-04T07:46:55.064Z,1017.44
2018-08-04T07:47:54.657Z,1017.42
2018-08-04T07:48:54.881Z,1017.42
2018-08-04T07:49:54.915Z,1017.41
2018-08-04T07:50:54.730Z,1017.39
2018-08-04T07:51:54.709Z,1017.38
2018-08-04T07:52:54.856Z,1017.38
2018-08-04T07:53:54.925Z,1017.38
2018-08-04T07:54:54.860Z,1017.38
2018-08-04T07:55:54.957Z,1017.35
2018-08-04T07:56:54.881Z,1017.35
2018-08-04T07:57:54.606Z,1017.35
2018-08-04T07:58:54.853Z,1017.38
2018-08-04T07:59:54.688Z,1017.38
2018-08-04T08:00:54.779Z,1017.37
2018-08-04T08:01:54.715Z,1017.38
2018-08-04T08:02:54.724Z,1017.33
2018-08-04T08:03:54.611Z,1017.38
2018-08-04T08:04:55.022Z,1017.33
2018-08-04T08:05:54.704Z,1017.37
2018-08-04T08:06:54.711Z,1017.33
2018-08-04T08:07:54.813Z,1017.36
2018-08-04T08:08:54.848Z,1017.32
2018-08-04T08:09:54.686Z,1017.31
2018-08-04T08:10:55.244Z,1017.3
2018-08-04T08:11:55.202Z,1017.34
2018-08-04T08:12:54.941Z,1017.31
2018-08-04T08:13:54.752Z,1017.3
2018-08-04T08:14:54.688Z,1017.29
2018-08-04T08:15:54.832Z,1017.31
2018-08-04T08:16:54.688Z,1017.31
2018-08-04T08:17:54.631Z,1017.31
2018-08-04T08:18:54.768Z,1017.31
2018-08-04T08:19:54.792Z,1017.32
2018-08-04T08:20:54.752Z,1017.31
2018-08-04T08:21:54.809Z,1017.29
2018-08-04T08:22:54.807Z,1017.34
2018-08-04T08:23:55.001Z,1017.34
2018-08-04T08:24:54.933Z,1017.34
2018-08-04T08:25:54.822Z,1017.34
2018-08-04T08:26:55.397Z,1017.34
2018-08-04T08:27:54.976Z,1017.34
2018-08-04T08:28:54.836Z,1017.35
2018-08-04T08:29:54.850Z,1017.32
2018-08-04T08:30:54.913Z,1017.37
2018-08-04T08:31:54.979Z,1017.36
2018-08-04T08:32:54.917Z,1017.34
2018-08-04T08:33:54.740Z,1017.35
2018-08-04T08:34:54.882Z,1017.33
2018-08-04T08:35:54.722Z,1017.33
2018-08-04T08:36:54.809Z,1017.34
2018-08-04T08:37:54.714Z,1017.33
2018-08-04T08:38:54.760Z,1017.29
2018-08-04T08:39:54.816Z,1017.32
2018-08-04T08:40:54.818Z,1017.31
2018-08-04T08:41:54.959Z,1017.3
2018-08-04T08:42:54.834Z,1017.3
2018-08-04T08:43:54.681Z,1017.32
2018-08-04T08:44:54.726Z,1017.3
2018-08-04T08:45:54.655Z,1017.3
2018-08-04T08:46:54.659Z,1017.28
2018-08-04T08:47:54.813Z,1017.25
2018-08-04T08:48:54.708Z,1017.26
2018-08-04T08:49:54.814Z,1017.26
2018-08-04T08:50:54.953Z,1017.23
2018-08-04T08:51:54.712Z,1017.2
2018-08-04T08:52:54.742Z,1017.2
2018-08-04T08:53:55.043Z,1017.21
2018-08-04T08:54:54.810Z,1017.18
2018-08-04T08:55:54.687Z,1017.15
2018-08-04T08:56:54.767Z,1017.13
2018-08-04T08:57:54.828Z,1017.14
2018-08-04T08:58:54.856Z,1017.15
2018-08-04T08:59:54.779Z,1017.09
2018-08-04T09:00:54.831Z,1017.1
2018-08-04T09:01:54.696Z,1017.04
2018-08-04T09:02:54.782Z,1017.07
2018-08-04T09:03:54.902Z,1017.04
2018-08-04T09:04:54.893Z,1017.05
2018-08-04T09:05:54.802Z,1017.05
2018-08-04T09:06:54.756Z,1017.06
2018-08-04T09:07:54.756Z,1017.03
2018-08-04T09:08:54.784Z,1017.02
2018-08-04T09:09:54.704Z,1017.03
2018-08-04T09:10:54.884Z,1017.07
2018-08-04T09:11:54.840Z,1017.05
2018-08-04T09:12:54.731Z,1017.07
2018-08-04T09:13:54.705Z,1017.04
2018-08-04T09:14:54.972Z,1017.08
2018-08-04T09:15:54.697Z,1017.09
2018-08-04T09:16:54.952Z,1017.08
2018-08-04T09:17:54.844Z,1017.07
2018-08-04T09:18:54.760Z,1017.08
2018-08-04T09:19:54.821Z,1017.11
2018-08-04T09:20:54.736Z,1017.04
2018-08-04T09:21:54.782Z,1017.05
2018-08-04T09:22:54.742Z,1017.05
2018-08-04T09:23:54.693Z,1017.04
2018-08-04T09:24:54.716Z,1017.06
2018-08-04T09:25:54.735Z,1017.03
2018-08-04T09:26:54.742Z,1017.06
2018-08-04T09:27:54.765Z,1017.06
2018-08-04T09:28:55.584Z,1017.07
2018-08-04T09:29:54.830Z,1017.05
2018-08-04T09:30:55.082Z,1017.04
2018-08-04T09:31:54.674Z,1017.09
2018-08-04T09:32:54.848Z,1017.1
2018-08-04T09:33:54.759Z,1017.07
2018-08-04T09:34:54.787Z,1017.06
2018-08-04T09:35:55.014Z,1017.01
2018-08-04T09:36:54.871Z,1017.07
2018-08-04T09:37:54.794Z,1017.01
2018-08-04T09:38:54.781Z,1017.04
2018-08-04T09:39:54.678Z,1017.07
2018-08-04T09:40:54.667Z,1017
2018-08-04T09:41:54.882Z,1017.04
2018-08-04T09:42:54.653Z,1017.05
2018-08-04T09:43:54.830Z,1017.02
2018-08-04T09:44:56.664Z,1016.99
2018-08-04T09:45:54.797Z,1017.05
2018-08-04T09:46:55.412Z,1017.05
2018-08-04T09:47:54.903Z,1017.05
2018-08-04T09:48:54.704Z,1017.07
2018-08-04T09:49:56.206Z,1017.08
2018-08-04T09:50:55.658Z,1017
2018-08-04T09:51:54.678Z,1017.03
2018-08-04T09:52:54.638Z,1017.04
2018-08-04T09:53:56.340Z,1017.07
2018-08-04T09:54:54.674Z,1017.03
2018-08-04T09:55:54.785Z,1017.04
2018-08-04T09:56:54.866Z,1017.08
2018-08-04T09:57:54.851Z,1017.04
2018-08-04T09:58:54.658Z,1017.04
2018-08-04T09:59:54.639Z,1017.09
2018-08-04T10:00:55.258Z,1017.06
2018-08-04T10:01:54.830Z,1017.08
2018-08-04T10:02:54.617Z,1017.08
2018-08-04T10:03:54.760Z,1017.03
2018-08-04T10:04:54.758Z,1017.04
2018-08-04T10:05:54.711Z,1017.01
2018-08-04T10:06:54.763Z,1017.02
2018-08-04T10:07:54.685Z,1017
2018-08-04T10:08:54.698Z,1017
2018-08-04T10:09:54.543Z,1017
2018-08-04T10:10:54.799Z,1016.97
2018-08-04T10:11:54.790Z,1016.97
2018-08-04T10:12:54.717Z,1016.98
2018-08-04T10:13:54.589Z,1016.93
2018-08-04T10:14:54.771Z,1016.92
2018-08-04T10:15:54.740Z,1016.91
2018-08-04T10:16:54.641Z,1016.89
2018-08-04T10:17:54.694Z,1016.91
2018-08-04T10:18:54.582Z,1016.92
2018-08-04T10:19:54.764Z,1016.97
2018-08-04T10:20:54.785Z,1016.91
2018-08-04T10:21:54.736Z,1016.92
2018-08-04T10:22:54.830Z,1016.87
2018-08-04T10:23:54.930Z,1016.91
2018-08-04T10:24:54.815Z,1016.9
2018-08-04T10:25:54.865Z,1016.85
2018-08-04T10:26:54.725Z,1016.91
2018-08-04T10:27:54.603Z,1016.89
2018-08-04T10:28:54.831Z,1016.84
2018-08-04T10:29:54.740Z,1016.83
2018-08-04T10:30:54.885Z,1016.82
2018-08-04T10:31:54.966Z,1016.85
2018-08-04T10:32:54.665Z,1016.82
2018-08-04T10:33:54.872Z,1016.85
2018-08-04T10:34:54.909Z,1016.88
2018-08-04T10:35:55.142Z,1016.86
2018-08-04T10:36:54.638Z,1016.84
2018-08-04T10:37:54.770Z,1016.84
2018-08-04T10:38:55.931Z,1016.81
2018-08-04T10:39:54.927Z,1016.8
2018-08-04T10:40:57.209Z,1016.77
2018-08-04T10:41:55.055Z,1016.8
2018-08-04T10:42:54.960Z,1016.76
2018-08-04T10:43:54.827Z,1016.82
2018-08-04T10:44:54.682Z,1016.82
2018-08-04T10:45:54.757Z,1016.82
2018-08-04T10:46:54.825Z,1016.84
2018-08-04T10:47:54.680Z,1016.83
2018-08-04T10:48:54.788Z,1016.85
2018-08-04T10:49:55.041Z,1016.82
2018-08-04T10:50:54.692Z,1016.84
2018-08-04T10:51:54.748Z,1016.82
2018-08-04T10:52:54.720Z,1016.83
2018-08-04T10:53:54.846Z,1016.82
2018-08-04T10:54:54.742Z,1016.75
2018-08-04T10:55:54.837Z,1016.77
2018-08-04T10:56:54.924Z,1016.73
2018-08-04T10:57:54.655Z,1016.76
2018-08-04T10:58:54.738Z,1016.74
2018-08-04T10:59:54.730Z,1016.7
2018-08-04T11:00:54.757Z,1016.68
2018-08-04T11:01:54.928Z,1016.67
2018-08-04T11:02:54.799Z,1016.63
2018-08-04T11:03:54.914Z,1016.61
2018-08-04T11:04:54.585Z,1016.62
2018-08-04T11:05:54.770Z,1016.64
2018-08-04T11:06:54.761Z,1016.63
2018-08-04T11:07:54.805Z,1016.58
2018-08-04T11:08:54.790Z,1016.62
2018-08-04T11:09:54.909Z,1016.62
2018-08-04T11:10:54.565Z,1016.58
2018-08-04T11:11:54.869Z,1016.59
2018-08-04T11:12:54.714Z,1016.59
2018-08-04T11:13:54.847Z,1016.59
2018-08-04T11:14:54.614Z,1016.55
2018-08-04T11:15:54.872Z,1016.55
2018-08-04T11:16:54.962Z,1016.57
2018-08-04T11:17:55.068Z,1016.57
2018-08-04T11:18:54.716Z,1016.52
2018-08-04T11:19:54.910Z,1016.51
2018-08-04T11:20:54.756Z,1016.47
2018-08-04T11:21:54.860Z,1016.47
2018-08-04T11:22:54.789Z,1016.42
2018-08-04T11:23:54.787Z,1016.43
2018-08-04T11:24:54.717Z,1016.43
2018-08-04T11:25:54.784Z,1016.44
2018-08-04T11:26:54.744Z,1016.45
2018-08-04T11:27:54.933Z,1016.46
2018-08-04T11:28:54.694Z,1016.42
2018-08-04T11:29:54.839Z,1016.46
2018-08-04T11:30:55.081Z,1016.45
2018-08-04T11:31:54.684Z,1016.44
2018-08-04T11:32:54.690Z,1016.36
2018-08-04T11:33:54.798Z,1016.38
2018-08-04T11:34:54.652Z,1016.4
2018-08-04T11:35:54.593Z,1016.46
2018-08-04T11:36:54.764Z,1016.45
2018-08-04T11:37:54.769Z,1016.53
2018-08-04T11:38:55.037Z,1016.46
2018-08-04T11:39:54.772Z,1016.46
2018-08-04T11:40:54.878Z,1016.47
2018-08-04T11:41:54.686Z,1016.43
2018-08-04T11:42:54.651Z,1016.46
2018-08-04T11:43:54.773Z,1016.47
2018-08-04T11:44:54.949Z,1016.49
2018-08-04T11:45:54.972Z,1016.52
2018-08-04T11:46:54.711Z,1016.48
2018-08-04T11:47:54.756Z,1016.49
2018-08-04T11:48:54.852Z,1016.48
2018-08-04T11:49:54.908Z,1016.49
2018-08-04T11:50:54.601Z,1016.52
2018-08-04T11:51:54.766Z,1016.51
2018-08-04T11:52:55.025Z,1016.51
2018-08-04T11:53:54.844Z,1016.52
2018-08-04T11:54:54.805Z,1016.51
2018-08-04T11:55:54.819Z,1016.48
2018-08-04T11:56:54.574Z,1016.48
2018-08-04T11:57:54.760Z,1016.46
2018-08-04T11:58:54.697Z,1016.42
2018-08-04T11:59:54.714Z,1016.44
2018-08-04T12:00:54.959Z,1016.46
2018-08-04T12:01:54.936Z,1016.44
2018-08-04T12:02:54.699Z,1016.41
2018-08-04T12:03:54.875Z,1016.45
2018-08-04T12:04:54.691Z,1016.45
2018-08-04T12:05:54.741Z,1016.47
2018-08-04T12:06:54.890Z,1016.43
2018-08-04T12:07:54.808Z,1016.4
2018-08-04T12:08:54.893Z,1016.37